Home > Products > Valid Products > TAF

000
FTUS43 KLOT 282155 AAB
TAFMDW
TAF AMD
KMDW 282155Z 2822/2918 07006KT P6SM SKC
     FM290200 13005KT P6SM SKC
     FM290900 18012KT P6SM FEW150 OVC200
     FM291200 19016G24KT P6SM OVC120
     FM291600 20021G33KT 3SM -SHRA OVC030 PROB30 2916/2918 2SM
      -SNPL=



000
FTUS43 KLOT 282155 AAB
TAFORD
TAF AMD
KORD 282155Z 2822/2924 07006KT P6SM SKC
     FM290200 13005KT P6SM SKC
     FM290900 18012KT P6SM FEW150 OVC200
     FM291200 19016G24KT P6SM OVC120
     FM291600 20021G33KT 3SM -SHRA OVC030 PROB30 2916/2918 2SM -SNPL
     FM292100 23017G26KT P6SM VCSH OVC025=



000
FTUS43 KLOT 282155 AAB
TAFGYY
TAF AMD
KGYY 282155Z 2822/2918 03010KT P6SM SKC
     FM290200 11004KT P6SM SKC
     FM290900 18012KT P6SM OVC200
     FM291200 19016G24KT P6SM OVC120
     FM291600 20021G31KT 3SM -SHRA OVC030 PROB30 2916/2918 2SM
      -SNPL=



000
FTUS43 KLOT 282155 AAB
TAFRFD
TAF AMD
KRFD 282155Z 2822/2918 VRB04KT P6SM SKC
     FM290800 18012KT P6SM OVC200
     FM291100 19016G25KT P6SM OVC120
     FM291500 20020G31KT 3SM -SHRA OVC030 PROB30 2915/2917 2SM
      -SNPL=



000
FTUS43 KLOT 282155 AAB
TAFDPA
TAF AMD
KDPA 282155Z 2822/2918 14004KT P6SM SKC
     FM290900 18012KT P6SM FEW150 OVC200
     FM291200 19016G24KT P6SM OVC120
     FM291600 20021G33KT 3SM -SHRA OVC030 PROB30 2916/2918 2SM
      -SNPL=



000
FTUS43 KLOT 282037 CCA
TAFRFD
TAF COR
KRFD 282037Z 2820/2918 15005KT P6SM FEW250
     FM290800 18012KT P6SM OVC200
     FM291100 19016G25KT P6SM OVC120
     FM291500 20020G31KT 3SM -SHRA OVC030 PROB30 2915/2917 2SM
      -SNPL=



000
FTUS43 KLOT 282037 CCA
TAFRFD
TAF COR
KRFD 282037Z 2820/2918 15005KT P6SM FEW250
     FM290800 18012KT P6SM OVC200
     FM291100 19016G25KT P6SM OVC120
     FM291500 20020G31KT 3SM -SHRA OVC030 PROB30 2915/2917 2SM
      -SNPL=



000
FTUS43 KLOT 281951 AAA
TAFRFD
TAF AMD
KRFD 281951Z 2820/2918 15065KT P6SM FEW250
     FM290800 18012KT P6SM OVC200
     FM291100 19016G25KT P6SM OVC120
     FM291500 20020G31KT 3SM -SHRA OVC030 PROB30 2915/2917 2SM
      -SNPL=



000
FTUS43 KLOT 281951 AAA
TAFGYY
TAF AMD
KGYY 281951Z 2820/2918 03010KT P6SM SKC
     FM290000 11004KT P6SM FEW250
     FM290900 18012KT P6SM OVC200
     FM291200 19016G24KT P6SM OVC120
     FM291600 20021G31KT 3SM -SHRA OVC030 PROB30 2916/2918 2SM
      -SNPL=



000
FTUS43 KLOT 281951 AAA
TAFGYY
TAF AMD
KGYY 281951Z 2820/2918 03010KT P6SM SKC
     FM290000 11004KT P6SM FEW250
     FM290900 18012KT P6SM OVC200
     FM291200 19016G24KT P6SM OVC120
     FM291600 20021G31KT 3SM -SHRA OVC030 PROB30 2916/2918 2SM
      -SNPL=



000
FTUS43 KLOT 281951 AAA
TAFORD
TAF AMD
KORD 281951Z 2820/2924 07007KT P6SM SKC
     FM290000 13005KT P6SM FEW250
     FM290900 18012KT P6SM FEW150 OVC200
     FM291200 19016G24KT P6SM OVC120
     FM291600 20021G33KT 3SM -SHRA OVC030 PROB30 2916/2918 2SM -SNPL
     FM292100 23017G26KT P6SM VCSH OVC025=



000
FTUS43 KLOT 281951 AAA
TAFDPA
TAF AMD
KDPA 281951Z 2820/2918 07007KT P6SM SKC
     FM290000 13005KT P6SM FEW250
     FM290900 18012KT P6SM FEW150 OVC200
     FM291200 19016G24KT P6SM OVC120
     FM291600 20021G33KT 3SM -SHRA OVC030 PROB30 2916/2918 2SM
      -SNPL=



000
FTUS43 KLOT 281951 AAA
TAFMDW
TAF AMD
KMDW 281951Z 2820/2918 07008KT P6SM SKC
     FM290000 13005KT P6SM FEW250
     FM290900 18012KT P6SM FEW150 OVC200
     FM291200 19016G24KT P6SM OVC120
     FM291600 20021G33KT 3SM -SHRA OVC030 PROB30 2916/2918 2SM
      -SNPL=



000
FTUS43 KLOT 281951 AAA
TAFMDW
TAF AMD
KMDW 281951Z 2820/2918 07008KT P6SM SKC
     FM290000 13005KT P6SM FEW250
     FM290900 18012KT P6SM FEW150 OVC200
     FM291200 19016G24KT P6SM OVC120
     FM291600 20021G33KT 3SM -SHRA OVC030 PROB30 2916/2918 2SM
      -SNPL=



000
FTUS43 KLOT 281951 AAA
TAFORD
TAF AMD
KORD 281951Z 2820/2924 07007KT P6SM SKC
     FM290000 13005KT P6SM FEW250
     FM290900 18012KT P6SM FEW150 OVC200
     FM291200 19016G24KT P6SM OVC120
     FM291600 20021G33KT 3SM -SHRA OVC030 PROB30 2916/2918 2SM -SNPL
     FM292100 23017G26KT P6SM VCSH OVC025=



000
FTUS43 KLOT 281951 AAA
TAFDPA
TAF AMD
KDPA 281951Z 2820/2918 07007KT P6SM SKC
     FM290000 13005KT P6SM FEW250
     FM290900 18012KT P6SM FEW150 OVC200
     FM291200 19016G24KT P6SM OVC120
     FM291600 20021G33KT 3SM -SHRA OVC030 PROB30 2916/2918 2SM
      -SNPL=



000
FTUS43 KLOT 281951 AAA
TAFRFD
TAF AMD
KRFD 281951Z 2820/2918 15065KT P6SM FEW250
     FM290800 18012KT P6SM OVC200
     FM291100 19016G25KT P6SM OVC120
     FM291500 20020G31KT 3SM -SHRA OVC030 PROB30 2915/2917 2SM
      -SNPL=



000
FTUS43 KLOT 281951 AAA
TAFGYY
TAF AMD
KGYY 281951Z 2820/2918 03010KT P6SM SKC
     FM290000 11004KT P6SM FEW250
     FM290900 18012KT P6SM OVC200
     FM291200 19016G24KT P6SM OVC120
     FM291600 20021G31KT 3SM -SHRA OVC030 PROB30 2916/2918 2SM
      -SNPL=



000
FTUS43 KLOT 281720
TAFGYY
TAF
KGYY 281720Z 2818/2918 03008KT P6SM SKC
     FM290000 11004KT P6SM FEW250
     FM290900 18012KT P6SM OVC200
     FM291200 19016G24KT P6SM OVC120
     FM291600 20021G31KT 3SM -SHRA OVC030 PROB30 2916/2918 2SM
      -SNPL=



000
FTUS43 KLOT 281720
TAFRFD
TAF
KRFD 281720Z 2818/2918 13007KT P6SM FEW250
     FM290800 18012KT P6SM OVC200
     FM291100 19016G25KT P6SM OVC120
     FM291500 20020G31KT 3SM -SHRA OVC030 PROB30 2915/2917 2SM
      -SNPL=



000
FTUS43 KLOT 281720
TAFDPA
TAF
KDPA 281720Z 2818/2918 07009KT P6SM SKC
     FM290000 13005KT P6SM FEW250
     FM290900 18012KT P6SM FEW150 OVC200
     FM291200 19016G24KT P6SM OVC120
     FM291600 20021G33KT 3SM -SHRA OVC030 PROB30 2916/2918 2SM
      -SNPL=



000
FTUS43 KLOT 281720
TAFMDW
TAF
KMDW 281720Z 2818/2918 07010KT P6SM SKC
     FM290000 13005KT P6SM FEW250
     FM290900 18012KT P6SM FEW150 OVC200
     FM291200 19016G24KT P6SM OVC120
     FM291600 20021G33KT 3SM -SHRA OVC030 PROB30 2916/2918 2SM
      -SNPL=



000
FTUS43 KLOT 281720
TAFGYY
TAF
KGYY 281720Z 2818/2918 03008KT P6SM SKC
     FM290000 11004KT P6SM FEW250
     FM290900 18012KT P6SM OVC200
     FM291200 19016G24KT P6SM OVC120
     FM291600 20021G31KT 3SM -SHRA OVC030 PROB30 2916/2918 2SM
      -SNPL=



000
FTUS43 KLOT 281720
TAFORD
TAF
KORD 281720Z 2818/2924 07009KT P6SM SKC
     FM290000 13005KT P6SM FEW250
     FM290900 18012KT P6SM FEW150 OVC200
     FM291200 19016G24KT P6SM OVC120
     FM291600 20021G33KT 3SM -SHRA OVC030 PROB30 2916/2918 2SM -SNPL
     FM292100 23017G26KT P6SM VCSH OVC025=



000
FTUS43 KLOT 281720
TAFMDW
TAF
KMDW 281720Z 2818/2918 07010KT P6SM SKC
     FM290000 13005KT P6SM FEW250
     FM290900 18012KT P6SM FEW150 OVC200
     FM291200 19016G24KT P6SM OVC120
     FM291600 20021G33KT 3SM -SHRA OVC030 PROB30 2916/2918 2SM
      -SNPL=



000
FTUS43 KLOT 281720
TAFDPA
TAF
KDPA 281720Z 2818/2918 07009KT P6SM SKC
     FM290000 13005KT P6SM FEW250
     FM290900 18012KT P6SM FEW150 OVC200
     FM291200 19016G24KT P6SM OVC120
     FM291600 20021G33KT 3SM -SHRA OVC030 PROB30 2916/2918 2SM
      -SNPL=



000
FTUS43 KLOT 281720
TAFRFD
TAF
KRFD 281720Z 2818/2918 13007KT P6SM FEW250
     FM290800 18012KT P6SM OVC200
     FM291100 19016G25KT P6SM OVC120
     FM291500 20020G31KT 3SM -SHRA OVC030 PROB30 2915/2917 2SM
      -SNPL=



000
FTUS43 KLOT 281720
TAFGYY
TAF
KGYY 281720Z 2818/2918 03008KT P6SM SKC
     FM290000 11004KT P6SM FEW250
     FM290900 18012KT P6SM OVC200
     FM291200 19016G24KT P6SM OVC120
     FM291600 20021G31KT 3SM -SHRA OVC030 PROB30 2916/2918 2SM
      -SNPL=



000
FTUS43 KLOT 281720
TAFORD
TAF
KORD 281720Z 2818/2924 07009KT P6SM SKC
     FM290000 13005KT P6SM FEW250
     FM290900 18012KT P6SM FEW150 OVC200
     FM291200 19016G24KT P6SM OVC120
     FM291600 20021G33KT 3SM -SHRA OVC030 PROB30 2916/2918 2SM -SNPL
     FM292100 23017G26KT P6SM VCSH OVC025=



000
FTUS43 KLOT 281600 AAB
TAFGYY
TAF AMD
KGYY 281600Z 2816/2912 03007KT P6SM SKC
     FM290000 11004KT P6SM FEW250
     FM290900 18012KT P6SM OVC200=



000
FTUS43 KLOT 281600 AAB
TAFDPA
TAF AMD
KDPA 281600Z 2816/2912 03007KT P6SM SKC
     FM281900 08007KT P6SM SKC
     FM290000 13005KT P6SM FEW250
     FM290900 18012KT P6SM OVC200=



000
FTUS43 KLOT 281600 AAB
TAFMDW
TAF AMD
KMDW 281600Z 2816/2912 05007KT P6SM SKC
     FM281800 07010KT P6SM SKC
     FM290000 13005KT P6SM FEW250
     FM290900 18012KT P6SM OVC200=



000
FTUS43 KLOT 281600 AAB
TAFGYY
TAF AMD
KGYY 281600Z 2816/2912 03007KT P6SM SKC
     FM290000 11004KT P6SM FEW250
     FM290900 18012KT P6SM OVC200=



000
FTUS43 KLOT 281600 AAB
TAFRFD
TAF AMD
KRFD 281600Z 2816/2912 13007KT P6SM FEW250
     FM290800 18012KT P6SM OVC200=



000
FTUS43 KLOT 281600 AAB
TAFORD
TAF AMD
KORD 281600Z 2816/2918 05007KT P6SM SKC
     FM281800 07009KT P6SM SKC
     FM290000 13005KT P6SM FEW250
     FM290900 18012KT P6SM OVC200
     FM291200 19016G24KT P6SM OVC120
     FM291500 20020G31KT 3SM -SHRA OVC030 PROB30 2915/2918 2SM
      -SNPL=



000
FTUS43 KLOT 281600 AAB
TAFGYY
TAF AMD
KGYY 281600Z 2816/2912 03007KT P6SM SKC
     FM290000 11004KT P6SM FEW250
     FM290900 18012KT P6SM OVC200=



000
FTUS43 KLOT 281600 AAB
TAFDPA
TAF AMD
KDPA 281600Z 2816/2912 03007KT P6SM SKC
     FM281900 08007KT P6SM SKC
     FM290000 13005KT P6SM FEW250
     FM290900 18012KT P6SM OVC200=



000
FTUS43 KLOT 281600 AAB
TAFMDW
TAF AMD
KMDW 281600Z 2816/2912 05007KT P6SM SKC
     FM281800 07010KT P6SM SKC
     FM290000 13005KT P6SM FEW250
     FM290900 18012KT P6SM OVC200=



000
FTUS43 KLOT 281600 AAB
TAFRFD
TAF AMD
KRFD 281600Z 2816/2912 13007KT P6SM FEW250
     FM290800 18012KT P6SM OVC200=



000
FTUS43 KLOT 281600 AAB
TAFORD
TAF AMD
KORD 281600Z 2816/2918 05007KT P6SM SKC
     FM281800 07009KT P6SM SKC
     FM290000 13005KT P6SM FEW250
     FM290900 18012KT P6SM OVC200
     FM291200 19016G24KT P6SM OVC120
     FM291500 20020G31KT 3SM -SHRA OVC030 PROB30 2915/2918 2SM
      -SNPL=



000
FTUS43 KLOT 281353 AAA
TAFMDW
TAF AMD
KMDW 281353Z 2814/2912 05006KT P6SM SKC
     FM281800 07010KT P6SM SKC
     FM290000 13005KT P6SM FEW250
     FM290900 18012KT P6SM OVC200=



000
FTUS43 KLOT 281353 AAA
TAFDPA
TAF AMD
KDPA 281353Z 2814/2912 VRB04KT P6SM SKC
     FM281900 08007KT P6SM SKC
     FM290000 13005KT P6SM FEW250
     FM290900 18012KT P6SM OVC200=



000
FTUS43 KLOT 281353 AAA
TAFORD
TAF AMD
KORD 281353Z 2814/2918 05006KT P6SM SKC
     FM281800 07009KT P6SM SKC
     FM290000 13005KT P6SM FEW250
     FM290900 18012KT P6SM OVC200
     FM291200 19016G24KT P6SM OVC120
     FM291500 20020G31KT 3SM -SHRA OVC030 PROB30 2915/2918 2SM
      -SNPL=



000
FTUS43 KLOT 281353 AAA
TAFRFD
TAF AMD
KRFD 281353Z 2814/2912 13007KT P6SM FEW250
     FM290800 18012KT P6SM OVC200=



000
FTUS43 KLOT 281353 AAA
TAFGYY
TAF AMD
KGYY 281353Z 2814/2912 03007KT P6SM SKC
     FM290000 11004KT P6SM FEW250
     FM290900 18012KT P6SM OVC200=



000
FTUS43 KLOT 281353 AAA
TAFGYY
TAF AMD
KGYY 281353Z 2814/2912 03007KT P6SM SKC
     FM290000 11004KT P6SM FEW250
     FM290900 18012KT P6SM OVC200=



000
FTUS43 KLOT 281128
TAFGYY
TAF
KGYY 281128Z 2812/2912 03010KT P6SM SKC
     FM290000 11004KT P6SM FEW250
     FM290900 18012KT P6SM OVC200=



000
FTUS43 KLOT 281128
TAFDPA
TAF
KDPA 281128Z 2812/2912 VRB04KT P6SM SKC
     FM281900 08007KT P6SM SKC
     FM290000 13005KT P6SM FEW250
     FM290900 18012KT P6SM OVC200=



000
FTUS43 KLOT 281128
TAFMDW
TAF
KMDW 281128Z 2812/2912 36004KT P6SM SKC
     FM281400 05006KT P6SM SKC
     FM281800 07010KT P6SM SKC
     FM290000 13005KT P6SM FEW250
     FM290900 18012KT P6SM OVC200=



000
FTUS43 KLOT 281128
TAFORD
TAF
KORD 281128Z 2812/2918 VRB04KT P6SM SKC
     FM281400 05006KT P6SM SKC
     FM281800 07009KT P6SM SKC
     FM290000 13005KT P6SM FEW250
     FM290900 18012KT P6SM OVC200
     FM291200 19016G24KT P6SM OVC120
     FM291500 20020G31KT 3SM -SHRA OVC030 PROB30 2915/2918 2SM
      -SNPL=



000
FTUS43 KLOT 281128
TAFRFD
TAF
KRFD 281128Z 2812/2912 13007KT P6SM FEW250
     FM290800 18012KT P6SM OVC200=



000
FTUS43 KLOT 281128
TAFGYY
TAF
KGYY 281128Z 2812/2912 03010KT P6SM SKC
     FM290000 11004KT P6SM FEW250
     FM290900 18012KT P6SM OVC200=



000
FTUS43 KLOT 281128
TAFORD
TAF
KORD 281128Z 2812/2918 VRB04KT P6SM SKC
     FM281400 05006KT P6SM SKC
     FM281800 07009KT P6SM SKC
     FM290000 13005KT P6SM FEW250
     FM290900 18012KT P6SM OVC200
     FM291200 19016G24KT P6SM OVC120
     FM291500 20020G31KT 3SM -SHRA OVC030 PROB30 2915/2918 2SM
      -SNPL=



000
FTUS43 KLOT 281128
TAFMDW
TAF
KMDW 281128Z 2812/2912 36004KT P6SM SKC
     FM281400 05006KT P6SM SKC
     FM281800 07010KT P6SM SKC
     FM290000 13005KT P6SM FEW250
     FM290900 18012KT P6SM OVC200=



000
FTUS43 KLOT 281128
TAFGYY
TAF
KGYY 281128Z 2812/2912 03010KT P6SM SKC
     FM290000 11004KT P6SM FEW250
     FM290900 18012KT P6SM OVC200=



000
FTUS43 KLOT 281128
TAFDPA
TAF
KDPA 281128Z 2812/2912 VRB04KT P6SM SKC
     FM281900 08007KT P6SM SKC
     FM290000 13005KT P6SM FEW250
     FM290900 18012KT P6SM OVC200=



000
FTUS43 KLOT 281128
TAFRFD
TAF
KRFD 281128Z 2812/2912 13007KT P6SM FEW250
     FM290800 18012KT P6SM OVC200=



000
FTUS43 KLOT 281128
TAFGYY
TAF
KGYY 281128Z 2812/2912 03010KT P6SM SKC
     FM290000 11004KT P6SM FEW250
     FM290900 18012KT P6SM OVC200=



000
FTUS43 KLOT 280851 AAA
TAFRFD
TAF AMD
KRFD 280851Z 2809/2906 VRB03KT P6SM SKC
     FM282000 17007KT P6SM FEW250=



000
FTUS43 KLOT 280851 AAA
TAFGYY
TAF AMD
KGYY 280851Z 2809/2906 02010KT P6SM SKC
     FM290000 09004KT P6SM FEW250=



000
FTUS43 KLOT 280851 AAA
TAFORD
TAF AMD
KORD 280851Z 2809/2912 VRB05KT P6SM FEW030
     FM281500 05005KT P6SM SKC
     FM281900 06009KT P6SM SKC
     FM290000 11005KT P6SM FEW250
     FM290800 17010KT P6SM OVC200=



000
FTUS43 KLOT 280851 AAA
TAFMDW
TAF AMD
KMDW 280851Z 2809/2906 36004KT P6SM FEW028
     FM281400 05006KT P6SM SKC
     FM281800 07010KT P6SM SKC
     FM290000 11005KT P6SM FEW250=



000
FTUS43 KLOT 280851 AAA
TAFDPA
TAF AMD
KDPA 280851Z 2809/2906 VRB03KT P6SM SKC
     FM282000 07008KT P6SM SKC
     FM290100 11005KT P6SM FEW250=



000
FTUS43 KLOT 280523
TAFORD
TAF
KORD 280523Z 2806/2912 03006KT P6SM FEW030
     FM281900 06009KT P6SM SKC
     FM290000 11005KT P6SM FEW250
     FM290800 17010KT P6SM OVC200=



000
FTUS43 KLOT 280523
TAFGYY
TAF
KGYY 280523Z 2806/2906 02010KT P6SM FEW028
     FM290000 09004KT P6SM FEW250=



000
FTUS43 KLOT 280523
TAFGYY
TAF
KGYY 280523Z 2806/2906 02010KT P6SM FEW028
     FM290000 09004KT P6SM FEW250=



000
FTUS43 KLOT 280523
TAFORD
TAF
KORD 280523Z 2806/2912 03006KT P6SM FEW030
     FM281900 06009KT P6SM SKC
     FM290000 11005KT P6SM FEW250
     FM290800 17010KT P6SM OVC200=



000
FTUS43 KLOT 280523
TAFGYY
TAF
KGYY 280523Z 2806/2906 02010KT P6SM FEW028
     FM290000 09004KT P6SM FEW250=



000
FTUS43 KLOT 280523
TAFMDW
TAF
KMDW 280523Z 2806/2906 04006KT P6SM FEW028
     FM281800 07010KT P6SM SKC
     FM290000 11005KT P6SM FEW250=



000
FTUS43 KLOT 280523
TAFMDW
TAF
KMDW 280523Z 2806/2906 04006KT P6SM FEW028
     FM281800 07010KT P6SM SKC
     FM290000 11005KT P6SM FEW250=



000
FTUS43 KLOT 280523
TAFDPA
TAF
KDPA 280523Z 2806/2906 VRB03KT P6SM SKC
     FM282000 07008KT P6SM SKC
     FM290100 11005KT P6SM FEW250=



000
FTUS43 KLOT 280523
TAFRFD
TAF
KRFD 280523Z 2806/2906 VRB03KT P6SM SKC
     FM282000 17007KT P6SM FEW250=



000
FTUS43 KLOT 280523
TAFGYY
TAF
KGYY 280523Z 2806/2906 02010KT P6SM FEW028
     FM290000 09004KT P6SM FEW250=



000
FTUS43 KLOT 280523
TAFRFD
TAF
KRFD 280523Z 2806/2906 VRB03KT P6SM SKC
     FM282000 17007KT P6SM FEW250=



000
FTUS43 KLOT 280523
TAFDPA
TAF
KDPA 280523Z 2806/2906 VRB03KT P6SM SKC
     FM282000 07008KT P6SM SKC
     FM290100 11005KT P6SM FEW250=



000
FTUS43 KLOT 280258 AAA
TAFORD
TAF AMD
KORD 280258Z 2803/2906 04006KT P6SM SKC
     FM281900 05011KT P6SM SKC
     FM290200 13005KT P6SM SKC=



000
FTUS43 KLOT 280258 AAA
TAFRFD
TAF AMD
KRFD 280258Z 2803/2824 VRB03KT P6SM SKC=



000
FTUS43 KLOT 280258 AAA
TAFMDW
TAF AMD
KMDW 280258Z 2803/2824 04006KT P6SM SKC
     FM281900 05011KT P6SM SKC=



000
FTUS43 KLOT 280258 AAA
TAFGYY
TAF AMD
KGYY 280258Z 2803/2824 03009KT P6SM SKC=



000
FTUS43 KLOT 280258 AAA
TAFDPA
TAF AMD
KDPA 280258Z 2803/2824 VRB03KT P6SM SKC
     FM282200 06009KT P6SM SKC=



000
FTUS43 KLOT 280258 AAA
TAFGYY
TAF AMD
KGYY 280258Z 2803/2824 03009KT P6SM SKC=



000
FTUS43 KLOT 280258 AAA
TAFGYY
TAF AMD
KGYY 280258Z 2803/2824 03009KT P6SM SKC=



000
FTUS43 KLOT 280258 AAA
TAFMDW
TAF AMD
KMDW 280258Z 2803/2824 04006KT P6SM SKC
     FM281900 05011KT P6SM SKC=



000
FTUS43 KLOT 280258 AAA
TAFGYY
TAF AMD
KGYY 280258Z 2803/2824 03009KT P6SM SKC=



000
FTUS43 KLOT 280258 AAA
TAFDPA
TAF AMD
KDPA 280258Z 2803/2824 VRB03KT P6SM SKC
     FM282200 06009KT P6SM SKC=



000
FTUS43 KLOT 280258 AAA
TAFORD
TAF AMD
KORD 280258Z 2803/2906 04006KT P6SM SKC
     FM281900 05011KT P6SM SKC
     FM290200 13005KT P6SM SKC=



000
FTUS43 KLOT 280258 AAA
TAFRFD
TAF AMD
KRFD 280258Z 2803/2824 VRB03KT P6SM SKC=



000
FTUS43 KLOT 272325
TAFGYY
TAF
KGYY 272325Z 2800/2824 02010KT P6SM SKC
     FM280100 05005KT P6SM SKC
     FM281900 03012KT P6SM SKC=



000
FTUS43 KLOT 272325
TAFRFD
TAF
KRFD 272325Z 2800/2824 36007KT P6SM SKC
     FM280200 VRB02KT P6SM SKC=



000
FTUS43 KLOT 272325
TAFDPA
TAF
KDPA 272325Z 2800/2824 04007KT P6SM SKC
     FM280200 VRB03KT P6SM SKC
     FM282200 06009KT P6SM SKC=



000
FTUS43 KLOT 272325
TAFGYY
TAF
KGYY 272325Z 2800/2824 02010KT P6SM SKC
     FM280100 05005KT P6SM SKC
     FM281900 03012KT P6SM SKC=



000
FTUS43 KLOT 272325
TAFORD
TAF
KORD 272325Z 2800/2906 04012KT P6SM SKC
     FM280100 05005KT P6SM SKC
     FM281900 05011KT P6SM SKC
     FM290200 13005KT P6SM SKC=



000
FTUS43 KLOT 272325
TAFGYY
TAF
KGYY 272325Z 2800/2824 02010KT P6SM SKC
     FM280100 05005KT P6SM SKC
     FM281900 03012KT P6SM SKC=



000
FTUS43 KLOT 272325
TAFRFD
TAF
KRFD 272325Z 2800/2824 36007KT P6SM SKC
     FM280200 VRB02KT P6SM SKC=



000
FTUS43 KLOT 272325
TAFMDW
TAF
KMDW 272325Z 2800/2824 04012KT P6SM SKC
     FM280100 05005KT P6SM SKC
     FM281900 05011KT P6SM SKC=



000
FTUS43 KLOT 272325
TAFORD
TAF
KORD 272325Z 2800/2906 04012KT P6SM SKC
     FM280100 05005KT P6SM SKC
     FM281900 05011KT P6SM SKC
     FM290200 13005KT P6SM SKC=



000
FTUS43 KLOT 272325
TAFMDW
TAF
KMDW 272325Z 2800/2824 04012KT P6SM SKC
     FM280100 05005KT P6SM SKC
     FM281900 05011KT P6SM SKC=



000
FTUS43 KLOT 272325
TAFDPA
TAF
KDPA 272325Z 2800/2824 04007KT P6SM SKC
     FM280200 VRB03KT P6SM SKC
     FM282200 06009KT P6SM SKC=



000
FTUS43 KLOT 272325
TAFGYY
TAF
KGYY 272325Z 2800/2824 02010KT P6SM SKC
     FM280100 05005KT P6SM SKC
     FM281900 03012KT P6SM SKC=



000
FTUS43 KLOT 272159 AAC
TAFGYY
TAF AMD
KGYY 272159Z 2721/2818 34012G24KT P6SM SCT040
     FM280200 36011KT P6SM SCT035
     FM281100 05004KT P6SM FEW035=



000
FTUS43 KLOT 272159 AAC
TAFGYY
TAF AMD
KGYY 272159Z 2721/2818 34012G24KT P6SM SCT040
     FM280200 36011KT P6SM SCT035
     FM281100 05004KT P6SM FEW035=



000
FTUS43 KLOT 272159 AAB
TAFMDW
TAF AMD
KMDW 272159Z 2721/2818 04012KT P6SM SKC
     FM280100 03007KT P6SM SCT035
     FM281100 04006KT P6SM FEW035=



000
FTUS43 KLOT 272159 AAC
TAFGYY
TAF AMD
KGYY 272159Z 2721/2818 34012G24KT P6SM SCT040
     FM280200 36011KT P6SM SCT035
     FM281100 05004KT P6SM FEW035=



000
FTUS43 KLOT 272159 AAB
TAFDPA
TAF AMD
KDPA 272159Z 2721/2818 36010KT P6SM SKC
     FM280200 03005KT P6SM SCT035
     FM281400 05005KT P6SM FEW250=



000
FTUS43 KLOT 272159 AAB
TAFORD
TAF AMD
KORD 272159Z 2721/2824 04012KT P6SM SKC
     FM280100 05007KT P6SM SCT040
     FM282000 07009KT P6SM FEW250=



000
FTUS43 KLOT 272159 AAB
TAFDPA
TAF AMD
KDPA 272159Z 2721/2818 36010KT P6SM SKC
     FM280200 03005KT P6SM SCT035
     FM281400 05005KT P6SM FEW250=



000
FTUS43 KLOT 272159 AAB
TAFRFD
TAF AMD
KRFD 272159Z 2721/2818 36010KT P6SM SKC
     FM280100 05005KT P6SM SKC
     FM281700 09005KT P6SM FEW250=



000
FTUS43 KLOT 272159 AAB
TAFMDW
TAF AMD
KMDW 272159Z 2721/2818 04012KT P6SM SKC
     FM280100 03007KT P6SM SCT035
     FM281100 04006KT P6SM FEW035=



000
FTUS43 KLOT 272159 AAB
TAFRFD
TAF AMD
KRFD 272159Z 2721/2818 36010KT P6SM SKC
     FM280100 05005KT P6SM SKC
     FM281700 09005KT P6SM FEW250=



000
FTUS43 KLOT 272159 AAC
TAFGYY
TAF AMD
KGYY 272159Z 2721/2818 34012G24KT P6SM SCT040
     FM280200 36011KT P6SM SCT035
     FM281100 05004KT P6SM FEW035=



000
FTUS43 KLOT 271954 AAB
TAFGYY
TAF AMD
KGYY 271954Z 2720/2818 35016G29KT P6SM BKN035
     FM272200 36012G22KT P6SM SCT040
     FM280200 36011KT P6SM SCT035
     FM281100 05004KT P6SM FEW035=



000
FTUS43 KLOT 271954 AAB
TAFGYY
TAF AMD
KGYY 271954Z 2720/2818 35016G29KT P6SM BKN035
     FM272200 36012G22KT P6SM SCT040
     FM280200 36011KT P6SM SCT035
     FM281100 05004KT P6SM FEW035=



000
FTUS43 KLOT 271954 AAB
TAFGYY
TAF AMD
KGYY 271954Z 2720/2818 35016G29KT P6SM BKN035
     FM272200 36012G22KT P6SM SCT040
     FM280200 36011KT P6SM SCT035
     FM281100 05004KT P6SM FEW035=



000
FTUS43 KLOT 271952 AAA
TAFORD
TAF AMD
KORD 271952Z 2720/2824 04011G19KT P6SM SCT045
     FM280200 05007KT P6SM SCT040
     FM282000 07009KT P6SM FEW250=



000
FTUS43 KLOT 271952 AAA
TAFMDW
TAF AMD
KMDW 271952Z 2720/2818 01013G21KT P6SM BKN045
     FM272200 02012G19KT P6SM SCT040
     FM280200 03007KT P6SM SCT035
     FM281100 04006KT P6SM FEW035=



000
FTUS43 KLOT 271952 AAA
TAFRFD
TAF AMD
KRFD 271952Z 2720/2818 36013G20KT P6SM FEW045
     FM272300 36008KT P6SM SKC
     FM280100 05005KT P6SM SKC
     FM281700 09005KT P6SM FEW250=



000
FTUS43 KLOT 271952 AAA
TAFDPA
TAF AMD
KDPA 271952Z 2720/2818 35013G18KT P6SM FEW045
     FM272300 36011KT P6SM FEW045
     FM280200 03005KT P6SM SCT035
     FM281400 05005KT P6SM FEW250=



000
FTUS43 KLOT 271952 AAA
TAFGYY
TAF AMD
KGYY 271952Z 2720/2818 35016G29KT P6SM BKN030
     FM272200 36012G22KT P6SM SCT040
     FM280200 36011KT P6SM SCT035
     FM281100 05004KT P6SM FEW035=



000
FTUS43 KLOT 271952 AAA
TAFGYY
TAF AMD
KGYY 271952Z 2720/2818 35016G29KT P6SM BKN030
     FM272200 36012G22KT P6SM SCT040
     FM280200 36011KT P6SM SCT035
     FM281100 05004KT P6SM FEW035=



000
FTUS43 KLOT 271952 AAA
TAFGYY
TAF AMD
KGYY 271952Z 2720/2818 35016G29KT P6SM BKN030
     FM272200 36012G22KT P6SM SCT040
     FM280200 36011KT P6SM SCT035
     FM281100 05004KT P6SM FEW035=



000
FTUS43 KLOT 271952 AAA
TAFDPA
TAF AMD
KDPA 271952Z 2720/2818 35013G18KT P6SM FEW045
     FM272300 36011KT P6SM FEW045
     FM280200 03005KT P6SM SCT035
     FM281400 05005KT P6SM FEW250=



000
FTUS43 KLOT 271952 AAA
TAFRFD
TAF AMD
KRFD 271952Z 2720/2818 36013G20KT P6SM FEW045
     FM272300 36008KT P6SM SKC
     FM280100 05005KT P6SM SKC
     FM281700 09005KT P6SM FEW250=



000
FTUS43 KLOT 271952 AAA
TAFMDW
TAF AMD
KMDW 271952Z 2720/2818 01013G21KT P6SM BKN045
     FM272200 02012G19KT P6SM SCT040
     FM280200 03007KT P6SM SCT035
     FM281100 04006KT P6SM FEW035=



000
FTUS43 KLOT 271952 AAA
TAFGYY
TAF AMD
KGYY 271952Z 2720/2818 35016G29KT P6SM BKN030
     FM272200 36012G22KT P6SM SCT040
     FM280200 36011KT P6SM SCT035
     FM281100 05004KT P6SM FEW035=



000
FTUS43 KLOT 271952 AAA
TAFORD
TAF AMD
KORD 271952Z 2720/2824 04011G19KT P6SM SCT045
     FM280200 05007KT P6SM SCT040
     FM282000 07009KT P6SM FEW250=



000
FTUS43 KLOT 271721
TAFGYY
TAF
KGYY 271721Z 2718/2818 35014G26KT P6SM FEW015 BKN040
     FM272200 01012G21KT P6SM SCT040
     FM280200 36010KT P6SM SCT035
     FM281100 05004KT P6SM FEW035=



000
FTUS43 KLOT 271721
TAFGYY
TAF
KGYY 271721Z 2718/2818 35014G26KT P6SM FEW015 BKN040
     FM272200 01012G21KT P6SM SCT040
     FM280200 36010KT P6SM SCT035
     FM281100 05004KT P6SM FEW035=



000
FTUS43 KLOT 271721
TAFDPA
TAF
KDPA 271721Z 2718/2818 36013G20KT P6SM FEW045
     FM272300 36011KT P6SM FEW045
     FM280200 03005KT P6SM SCT035
     FM281400 05005KT P6SM FEW250=



000
FTUS43 KLOT 271721
TAFMDW
TAF
KMDW 271721Z 2718/2818 01013G21KT P6SM BKN040
     FM272200 01012G19KT P6SM SCT040
     FM280200 03007KT P6SM SCT035
     FM281100 04006KT P6SM FEW035=



000
FTUS43 KLOT 271721
TAFRFD
TAF
KRFD 271721Z 2718/2818 36013G20KT P6SM FEW040
     FM272300 36008KT P6SM SKC
     FM280100 05005KT P6SM SKC
     FM281700 09005KT P6SM FEW250=



000
FTUS43 KLOT 271721
TAFORD
TAF
KORD 271721Z 2718/2824 02013G20KT P6SM BKN045
     FM272100 04011G16KT P6SM SCT040
     FM280200 05007KT P6SM SCT035
     FM282000 07009KT P6SM FEW250=



000
FTUS43 KLOT 271721
TAFDPA
TAF
KDPA 271721Z 2718/2818 36013G20KT P6SM FEW045
     FM272300 36011KT P6SM FEW045
     FM280200 03005KT P6SM SCT035
     FM281400 05005KT P6SM FEW250=



000
FTUS43 KLOT 271721
TAFGYY
TAF
KGYY 271721Z 2718/2818 35014G26KT P6SM FEW015 BKN040
     FM272200 01012G21KT P6SM SCT040
     FM280200 36010KT P6SM SCT035
     FM281100 05004KT P6SM FEW035=



000
FTUS43 KLOT 271721
TAFRFD
TAF
KRFD 271721Z 2718/2818 36013G20KT P6SM FEW040
     FM272300 36008KT P6SM SKC
     FM280100 05005KT P6SM SKC
     FM281700 09005KT P6SM FEW250=



000
FTUS43 KLOT 271721
TAFGYY
TAF
KGYY 271721Z 2718/2818 35014G26KT P6SM FEW015 BKN040
     FM272200 01012G21KT P6SM SCT040
     FM280200 36010KT P6SM SCT035
     FM281100 05004KT P6SM FEW035=



000
FTUS43 KLOT 271721
TAFORD
TAF
KORD 271721Z 2718/2824 02013G20KT P6SM BKN045
     FM272100 04011G16KT P6SM SCT040
     FM280200 05007KT P6SM SCT035
     FM282000 07009KT P6SM FEW250=



000
FTUS43 KLOT 271721
TAFMDW
TAF
KMDW 271721Z 2718/2818 01013G21KT P6SM BKN040
     FM272200 01012G19KT P6SM SCT040
     FM280200 03007KT P6SM SCT035
     FM281100 04006KT P6SM FEW035=



000
FTUS43 KLOT 271559 AAB
TAFGYY
TAF AMD
KGYY 271559Z 2716/2812 01015G26KT P6SM VCSH BKN028
     FM272000 03012G18KT P6SM BKN035
     FM280200 04010KT P6SM BKN040
     FM280900 03006KT P6SM SCT040=



000
FTUS43 KLOT 271559 AAB
TAFRFD
TAF AMD
KRFD 271559Z 2716/2812 36013G20KT P6SM SCT040
     FM280000 05005KT P6SM SKC=



000
FTUS43 KLOT 271559 AAB
TAFDPA
TAF AMD
KDPA 271559Z 2716/2812 36012G22KT P6SM SCT040
     FM271800 01011G16KT P6SM BKN040
     FM272100 02011G16KT P6SM FEW040
     FM280200 03007KT P6SM FEW040
     FM281100 05004KT P6SM FEW035=



000
FTUS43 KLOT 271559 AAB
TAFGYY
TAF AMD
KGYY 271559Z 2716/2812 01015G26KT P6SM VCSH BKN028
     FM272000 03012G18KT P6SM BKN035
     FM280200 04010KT P6SM BKN040
     FM280900 03006KT P6SM SCT040=



000
FTUS43 KLOT 271559 AAB
TAFORD
TAF AMD
KORD 271559Z 2716/2818 35012G20KT P6SM SCT045
     FM271800 01011G16KT P6SM BKN040
     FM272100 04011G16KT P6SM SCT040
     FM280200 05007KT P6SM SCT035
     FM281100 05004KT P6SM FEW035=



000
FTUS43 KLOT 271559 AAB
TAFMDW
TAF AMD
KMDW 271559Z 2716/2812 01014G21KT P6SM BKN040
     FM272000 04012KT P6SM SCT040
     FM280200 05008KT P6SM SCT035
     FM281100 05004KT P6SM FEW035=



000
FTUS43 KLOT 271559 AAB
TAFGYY
TAF AMD
KGYY 271559Z 2716/2812 01015G26KT P6SM VCSH BKN028
     FM272000 03012G18KT P6SM BKN035
     FM280200 04010KT P6SM BKN040
     FM280900 03006KT P6SM SCT040=



000
FTUS43 KLOT 271559 AAB
TAFDPA
TAF AMD
KDPA 271559Z 2716/2812 36012G22KT P6SM SCT040
     FM271800 01011G16KT P6SM BKN040
     FM272100 02011G16KT P6SM FEW040
     FM280200 03007KT P6SM FEW040
     FM281100 05004KT P6SM FEW035=



000
FTUS43 KLOT 271559 AAB
TAFMDW
TAF AMD
KMDW 271559Z 2716/2812 01014G21KT P6SM BKN040
     FM272000 04012KT P6SM SCT040
     FM280200 05008KT P6SM SCT035
     FM281100 05004KT P6SM FEW035=



000
FTUS43 KLOT 271559 AAB
TAFORD
TAF AMD
KORD 271559Z 2716/2818 35012G20KT P6SM SCT045
     FM271800 01011G16KT P6SM BKN040
     FM272100 04011G16KT P6SM SCT040
     FM280200 05007KT P6SM SCT035
     FM281100 05004KT P6SM FEW035=



000
FTUS43 KLOT 271559 AAB
TAFRFD
TAF AMD
KRFD 271559Z 2716/2812 36013G20KT P6SM SCT040
     FM280000 05005KT P6SM SKC=



000
FTUS43 KLOT 271559 AAB
TAFGYY
TAF AMD
KGYY 271559Z 2716/2812 01015G26KT P6SM VCSH BKN028
     FM272000 03012G18KT P6SM BKN035
     FM280200 04010KT P6SM BKN040
     FM280900 03006KT P6SM SCT040=



000
FTUS43 KLOT 271404 AAA
TAFRFD
TAF AMD
KRFD 271404Z 2714/2812 36012G18KT P6SM SCT040
     FM280000 05005KT P6SM SKC=



000
FTUS43 KLOT 271404 AAA
TAFORD
TAF AMD
KORD 271404Z 2714/2818 01014G20KT P6SM FEW025 SCT045
     FM271800 01011G16KT P6SM BKN040
     FM272100 04011G16KT P6SM SCT040
     FM280200 05007KT P6SM SCT035
     FM281100 05004KT P6SM FEW035=



000
FTUS43 KLOT 271404 AAA
TAFMDW
TAF AMD
KMDW 271404Z 2714/2812 01012KT P6SM VCSH FEW025 SCT040
     FM271500 01014G20KT P6SM BKN040
     FM272000 04012KT P6SM SCT040
     FM280200 05008KT P6SM SCT035
     FM281100 05004KT P6SM FEW035=



000
FTUS43 KLOT 271404 AAA
TAFDPA
TAF AMD
KDPA 271404Z 2714/2812 35012G20KT P6SM SCT040
     FM271800 01011G16KT P6SM BKN040
     FM272100 02011G16KT P6SM FEW040
     FM280200 03007KT P6SM FEW040
     FM281100 05004KT P6SM FEW035=



000
FTUS43 KLOT 271404 AAA
TAFGYY
TAF AMD
KGYY 271404Z 2714/2812 01015G26KT P6SM VCSH BKN028
     FM272000 03012G18KT P6SM BKN035
     FM280200 04010KT P6SM BKN040
     FM280900 03006KT P6SM SCT040=



000
FTUS43 KLOT 271404 AAA
TAFGYY
TAF AMD
KGYY 271404Z 2714/2812 01015G26KT P6SM VCSH BKN028
     FM272000 03012G18KT P6SM BKN035
     FM280200 04010KT P6SM BKN040
     FM280900 03006KT P6SM SCT040=



000
FTUS43 KLOT 271404 AAA
TAFRFD
TAF AMD
KRFD 271404Z 2714/2812 36012G18KT P6SM SCT040
     FM280000 05005KT P6SM SKC=



000
FTUS43 KLOT 271404 AAA
TAFORD
TAF AMD
KORD 271404Z 2714/2818 01014G20KT P6SM FEW025 SCT045
     FM271800 01011G16KT P6SM BKN040
     FM272100 04011G16KT P6SM SCT040
     FM280200 05007KT P6SM SCT035
     FM281100 05004KT P6SM FEW035=



000
FTUS43 KLOT 271404 AAA
TAFMDW
TAF AMD
KMDW 271404Z 2714/2812 01012KT P6SM VCSH FEW025 SCT040
     FM271500 01014G20KT P6SM BKN040
     FM272000 04012KT P6SM SCT040
     FM280200 05008KT P6SM SCT035
     FM281100 05004KT P6SM FEW035=



000
FTUS43 KLOT 271404 AAA
TAFDPA
TAF AMD
KDPA 271404Z 2714/2812 35012G20KT P6SM SCT040
     FM271800 01011G16KT P6SM BKN040
     FM272100 02011G16KT P6SM FEW040
     FM280200 03007KT P6SM FEW040
     FM281100 05004KT P6SM FEW035=



000
FTUS43 KLOT 271404 AAA
TAFGYY
TAF AMD
KGYY 271404Z 2714/2812 01015G26KT P6SM VCSH BKN028
     FM272000 03012G18KT P6SM BKN035
     FM280200 04010KT P6SM BKN040
     FM280900 03006KT P6SM SCT040=



000
FTUS43 KLOT 271155
TAFDPA
TAF
KDPA 271155Z 2712/2812 35011KT P6SM BKN040
     FM271300 35012G18KT P6SM SCT040
     FM271800 01011G16KT P6SM BKN040
     FM272100 02011G16KT P6SM FEW040
     FM280200 03007KT P6SM FEW040
     FM281100 05004KT P6SM FEW035=



000
FTUS43 KLOT 271155
TAFRFD
TAF
KRFD 271155Z 2712/2812 01012G17KT P6SM SCT040
     FM271400 36012G17KT P6SM SCT040
     FM280000 05005KT P6SM SKC=



000
FTUS43 KLOT 271152
TAFGYY
TAF
KGYY 271152Z 2712/2812 01012G18KT 4SM -SHSN OVC015
      TEMPO 2712/2715 1 1/2SM -SHSN OVC010
     FM271600 01015G23KT P6SM -SHSN BKN025
     FM272000 03012G18KT P6SM BKN035
     FM280200 04010KT P6SM BKN040
     FM280900 03006KT P6SM SCT040=



000
FTUS43 KLOT 271152
TAFGYY
TAF
KGYY 271152Z 2712/2812 01012G18KT 4SM -SHSN OVC015
      TEMPO 2712/2715 1 1/2SM -SHSN OVC010
     FM271600 01015G23KT P6SM -SHSN BKN025
     FM272000 03012G18KT P6SM BKN035
     FM280200 04010KT P6SM BKN040
     FM280900 03006KT P6SM SCT040=



000
FTUS43 KLOT 271152
TAFGYY
TAF
KGYY 271152Z 2712/2812 01012G18KT 4SM -SHSN OVC015
      TEMPO 2712/2715 1 1/2SM -SHSN OVC010
     FM271600 01015G23KT P6SM -SHSN BKN025
     FM272000 03012G18KT P6SM BKN035
     FM280200 04010KT P6SM BKN040
     FM280900 03006KT P6SM SCT040=



000
FTUS43 KLOT 271152
TAFGYY
TAF
KGYY 271152Z 2712/2812 01012G18KT 4SM -SHSN OVC015
      TEMPO 2712/2715 1 1/2SM -SHSN OVC010
     FM271600 01015G23KT P6SM -SHSN BKN025
     FM272000 03012G18KT P6SM BKN035
     FM280200 04010KT P6SM BKN040
     FM280900 03006KT P6SM SCT040=



000
FTUS43 KLOT 271141
TAFMDW
TAF
KMDW 271141Z 2712/2812 01012KT 3SM -SHSN OVC020
      TEMPO 2712/2713 1 1/2SM -SHSN OVC012
     FM271300 01012KT P6SM -SHSN BKN025 OVC035
     FM271500 01014G20KT P6SM BKN040
     FM272000 04012KT P6SM SCT040
     FM280200 05008KT P6SM SCT035
     FM281100 05004KT P6SM FEW035=



000
FTUS43 KLOT 271141
TAFORD
TAF
KORD 271141Z 2712/2818 01012KT 6SM -SHSN OVC035
      TEMPO 2712/2713 5SM -SHSN OVC025
     FM271400 01014G20KT P6SM SCT040
     FM271800 01011G16KT P6SM BKN040
     FM272100 04011G16KT P6SM SCT040
     FM280200 05007KT P6SM SCT035
     FM281100 05004KT P6SM FEW035=



000
FTUS43 KLOT 271141
TAFORD
TAF
KORD 271141Z 2712/2818 01012KT 6SM -SHSN OVC035
      TEMPO 2712/2713 5SM -SHSN OVC025
     FM271400 01014G20KT P6SM SCT040
     FM271800 01011G16KT P6SM BKN040
     FM272100 04011G16KT P6SM SCT040
     FM280200 05007KT P6SM SCT035
     FM281100 05004KT P6SM FEW035=



000
FTUS43 KLOT 271141
TAFMDW
TAF
KMDW 271141Z 2712/2812 01012KT 3SM -SHSN OVC020
      TEMPO 2712/2713 1 1/2SM -SHSN OVC012
     FM271300 01012KT P6SM -SHSN BKN025 OVC035
     FM271500 01014G20KT P6SM BKN040
     FM272000 04012KT P6SM SCT040
     FM280200 05008KT P6SM SCT035
     FM281100 05004KT P6SM FEW035=



000
FTUS43 KLOT 271039 AAB
TAFORD
TAF AMD
KORD 271039Z 2711/2812 01012KT 2SM -SHSN OVC025
     FM271130 01012KT P6SM -SHSN BKN025 OVC040
     FM271300 01014G20KT P6SM BKN040
     FM271800 01011KT P6SM BKN040
     FM272100 04012KT P6SM SCT040
     FM280200 05007KT P6SM BKN035=



000
FTUS43 KLOT 271038 AAB
TAFMDW
TAF AMD
KMDW 271038Z 2711/2806 01012KT 3SM -SHSN OVC020
      TEMPO 2711/2712 1 1/2SM -SHSN OVC012
     FM271230 01012KT P6SM -SHSN BKN025 OVC035
     FM271500 01014G20KT P6SM BKN040
     FM272000 04012KT P6SM BKN040
     FM280200 05008KT P6SM BKN035=



000
FTUS43 KLOT 270859 AAA
TAFGYY
TAF AMD
KGYY 270859Z 2709/2806 36012G18KT 2SM -SHSN OVC017
     FM271200 01012G18KT 4SM -SHSN OVC025
     FM271500 01015G23KT P6SM -SHSN BKN030
     FM272000 03012G18KT P6SM BKN035
     FM280200 05010KT P6SM BKN040=



000
FTUS43 KLOT 270859 AAA
TAFRFD
TAF AMD
KRFD 270859Z 2709/2806 01011KT P6SM SCT040
     FM271400 36012KT P6SM SCT040
     FM280000 03006KT P6SM SKC=



000
FTUS43 KLOT 270859 AAA
TAFMDW
TAF AMD
KMDW 270859Z 2709/2806 01012KT 3SM -SHSN OVC025
      TEMPO 2709/2711 1 1/2SM -SHSN OVC015
     FM271200 01012KT P6SM -SHSN BKN025 OVC040
     FM271500 01014G20KT P6SM BKN040
     FM272000 04012KT P6SM BKN040
     FM280200 05008KT P6SM BKN035=



000
FTUS43 KLOT 270859 AAA
TAFRFD
TAF AMD
KRFD 270859Z 2709/2806 01011KT P6SM SCT040
     FM271400 36012KT P6SM SCT040
     FM280000 03006KT P6SM SKC=



000
FTUS43 KLOT 270859 AAA
TAFDPA
TAF AMD
KDPA 270859Z 2709/2806 35010KT P6SM VCSH OVC040
      TEMPO 2709/2710 5SM -SN OVC030
     FM271100 35011KT P6SM BKN040
     FM271500 35013G18KT P6SM BKN050
     FM272300 03010KT P6SM FEW050=



000
FTUS43 KLOT 270859 AAA
TAFMDW
TAF AMD
KMDW 270859Z 2709/2806 01012KT 3SM -SHSN OVC025
      TEMPO 2709/2711 1 1/2SM -SHSN OVC015
     FM271200 01012KT P6SM -SHSN BKN025 OVC040
     FM271500 01014G20KT P6SM BKN040
     FM272000 04012KT P6SM BKN040
     FM280200 05008KT P6SM BKN035=



000
FTUS43 KLOT 270859 AAA
TAFGYY
TAF AMD
KGYY 270859Z 2709/2806 36012G18KT 2SM -SHSN OVC017
     FM271200 01012G18KT 4SM -SHSN OVC025
     FM271500 01015G23KT P6SM -SHSN BKN030
     FM272000 03012G18KT P6SM BKN035
     FM280200 05010KT P6SM BKN040=



000
FTUS43 KLOT 270859 AAA
TAFDPA
TAF AMD
KDPA 270859Z 2709/2806 35010KT P6SM VCSH OVC040
      TEMPO 2709/2710 5SM -SN OVC030
     FM271100 35011KT P6SM BKN040
     FM271500 35013G18KT P6SM BKN050
     FM272300 03010KT P6SM FEW050=



000
FTUS43 KLOT 270859 AAA
TAFORD
TAF AMD
KORD 270859Z 2709/2812 01012KT 3SM -SHSN OVC025
      TEMPO 2709/2710 2SM -SHSN
     FM271130 01012KT P6SM -SHSN BKN025 OVC040
     FM271300 01014G20KT P6SM BKN040
     FM271800 01011KT P6SM BKN040
     FM272100 04012KT P6SM SCT040
     FM280200 05007KT P6SM BKN035=



000
FTUS43 KLOT 270859 AAA
TAFGYY
TAF AMD
KGYY 270859Z 2709/2806 36012G18KT 2SM -SHSN OVC017
     FM271200 01012G18KT 4SM -SHSN OVC025
     FM271500 01015G23KT P6SM -SHSN BKN030
     FM272000 03012G18KT P6SM BKN035
     FM280200 05010KT P6SM BKN040=



000
FTUS43 KLOT 270859 AAA
TAFORD
TAF AMD
KORD 270859Z 2709/2812 01012KT 3SM -SHSN OVC025
      TEMPO 2709/2710 2SM -SHSN
     FM271130 01012KT P6SM -SHSN BKN025 OVC040
     FM271300 01014G20KT P6SM BKN040
     FM271800 01011KT P6SM BKN040
     FM272100 04012KT P6SM SCT040
     FM280200 05007KT P6SM BKN035=



000
FTUS43 KLOT 270859 AAA
TAFGYY
TAF AMD
KGYY 270859Z 2709/2806 36012G18KT 2SM -SHSN OVC017
     FM271200 01012G18KT 4SM -SHSN OVC025
     FM271500 01015G23KT P6SM -SHSN BKN030
     FM272000 03012G18KT P6SM BKN035
     FM280200 05010KT P6SM BKN040=



000
FTUS43 KLOT 270531
TAFGYY
TAF
KGYY 270531Z 2706/2806 36012G18KT 4SM -SHSN OVC025
     FM270800 36012G18KT 2SM -SHSN OVC017
     FM271200 01012G18KT 4SM -SHSN OVC025
     FM271500 01015G23KT P6SM -SHSN BKN030
     FM272000 03012G18KT P6SM BKN035
     FM280200 05010KT P6SM BKN040=



000
FTUS43 KLOT 270531
TAFORD
TAF
KORD 270531Z 2706/2812 35012KT P6SM -SN OVC040
     FM270700 01012KT 3SM -SHSN BKN025 OVC040
     FM271200 01012KT P6SM -SHSN BKN025 OVC040
     FM271400 01014G20KT P6SM BKN040
     FM271800 01011KT P6SM BKN040
     FM272100 04012KT P6SM SCT040
     FM280200 05007KT P6SM BKN035=



000
FTUS43 KLOT 270531
TAFRFD
TAF
KRFD 270531Z 2706/2806 01012KT P6SM SCT050
      TEMPO 2706/2707 -SN OVC050
     FM271400 36012KT P6SM SCT040
     FM280000 03006KT P6SM SKC=



000
FTUS43 KLOT 270531
TAFGYY
TAF
KGYY 270531Z 2706/2806 36012G18KT 4SM -SHSN OVC025
     FM270800 36012G18KT 2SM -SHSN OVC017
     FM271200 01012G18KT 4SM -SHSN OVC025
     FM271500 01015G23KT P6SM -SHSN BKN030
     FM272000 03012G18KT P6SM BKN035
     FM280200 05010KT P6SM BKN040=



000
FTUS43 KLOT 270531
TAFDPA
TAF
KDPA 270531Z 2706/2806 35010KT P6SM VCSH OVC035
      TEMPO 2707/2710 5SM -SN OVC030
     FM271200 35011KT P6SM OVC040
     FM271500 35013G18KT P6SM BKN050
     FM272300 03010KT P6SM FEW050=



000
FTUS43 KLOT 270531
TAFMDW
TAF
KMDW 270531Z 2706/2806 35012KT P6SM -SN OVC040
     FM270700 01012KT 3SM -SHSN OVC025
      TEMPO 2708/2711 1 1/2SM -SHSN OVC017
     FM271200 01012KT P6SM -SHSN BKN025 OVC040
     FM271500 01014G20KT P6SM BKN040
     FM272000 04012KT P6SM BKN040
     FM280200 05008KT P6SM BKN035=



000
FTUS43 KLOT 270300 AAA
TAFGYY
TAF AMD
KGYY 270300Z 2703/2724 02012KT P6SM -SN BKN040
     FM270600 01012KT 3SM -SHSN BR BKN020 OVC040
     FM271200 01012KT P6SM -SHSN BKN025 OVC040
     FM271500 36015G23KT P6SM BKN040
     FM272100 03012KT P6SM SCT040=



000
FTUS43 KLOT 270300 AAA
TAFDPA
TAF AMD
KDPA 270300Z 2703/2724 35010KT P6SM OVC040
     FM270700 01010KT P6SM VCSH BKN025 OVC040
     FM271500 35013G18KT P6SM BKN050=



000
FTUS43 KLOT 270300 AAA
TAFGYY
TAF AMD
KGYY 270300Z 2703/2724 02012KT P6SM -SN BKN040
     FM270600 01012KT 3SM -SHSN BR BKN020 OVC040
     FM271200 01012KT P6SM -SHSN BKN025 OVC040
     FM271500 36015G23KT P6SM BKN040
     FM272100 03012KT P6SM SCT040=



000
FTUS43 KLOT 270300 AAA
TAFMDW
TAF AMD
KMDW 270300Z 2703/2724 35012KT P6SM -SN OVC040
     FM270700 01012KT 3SM -SHSN BKN020 OVC040
     FM271200 01012KT P6SM -SHSN BKN025 OVC040
     FM271500 36014G20KT P6SM BKN040
     FM272100 04012KT P6SM SCT040=



000
FTUS43 KLOT 270300 AAA
TAFORD
TAF AMD
KORD 270300Z 2703/2806 36012KT P6SM -SN OVC040
     FM270700 01012KT 3SM -SHSN BKN020 OVC040
     FM271200 01012KT P6SM -SHSN BKN025 OVC040
     FM271400 36014G20KT P6SM BKN040
     FM272100 04012KT P6SM SCT040=



000
FTUS43 KLOT 270300 AAA
TAFRFD
TAF AMD
KRFD 270300Z 2703/2724 01012KT P6SM OVC040
     FM271400 36012KT P6SM SCT040=



000
FTUS43 KLOT 262330
TAFRFD
TAF
KRFD 262330Z 2700/2724 33010KT P6SM BKN040
     FM270200 36010KT P6SM BKN035
     FM271400 36012KT P6SM SCT040=



000
FTUS43 KLOT 262330
TAFORD
TAF
KORD 262330Z 2700/2806 32012KT P6SM BKN045
     FM270200 34010KT P6SM BKN035
     FM270500 01012KT P6SM OVC035
     FM270700 01012KT 3SM -SHSN BKN020 OVC040
     FM271200 01012KT P6SM -SHSN BKN025 OVC040
     FM271400 36014G20KT P6SM BKN040
     FM272100 04012KT P6SM SCT040=



000
FTUS43 KLOT 262330
TAFGYY
TAF
KGYY 262330Z 2700/2724 02010KT P6SM BKN045
     FM270600 01012KT 3SM -SHSN BR BKN020 OVC040
     FM271200 01012KT P6SM -SHSN BKN025 OVC040
     FM271500 36015G23KT P6SM BKN040
     FM272100 03012KT P6SM SCT040=



000
FTUS43 KLOT 262330
TAFMDW
TAF
KMDW 262330Z 2700/2724 32012KT P6SM BKN045
     FM270200 34010KT P6SM BKN035
     FM270500 01012KT P6SM OVC035
     FM270700 01012KT 3SM -SHSN BKN020 OVC040
     FM271200 01012KT P6SM -SHSN BKN025 OVC040
     FM271500 36014G20KT P6SM BKN040
     FM272100 04012KT P6SM SCT040=



000
FTUS43 KLOT 262330
TAFDPA
TAF
KDPA 262330Z 2700/2724 32010KT P6SM BKN045
     FM270200 36009KT P6SM BKN035
     FM270700 01010KT P6SM VCSH BKN025 OVC040
     FM271500 35013G18KT P6SM BKN050=



000
FTUS43 KLOT 262330
TAFGYY
TAF
KGYY 262330Z 2700/2724 02010KT P6SM BKN045
     FM270600 01012KT 3SM -SHSN BR BKN020 OVC040
     FM271200 01012KT P6SM -SHSN BKN025 OVC040
     FM271500 36015G23KT P6SM BKN040
     FM272100 03012KT P6SM SCT040=



000
FTUS43 KLOT 262159 AAB
TAFORD
TAF AMD
KORD 262159Z 2622/2724 32012KT P6SM BKN045
     FM270200 34009KT P6SM BKN035
     FM270700 01011KT 4SM -SHSN BKN020 OVC040
     FM271200 01012KT P6SM -SHSN BKN025 OVC040
     FM271500 36010G18KT P6SM BKN040
     FM272100 04012KT P6SM SCT040=



000
FTUS43 KLOT 262159 AAB
TAFRFD
TAF AMD
KRFD 262159Z 2622/2718 32012KT P6SM BKN040
     FM270200 36010KT P6SM BKN035=



000
FTUS43 KLOT 262159 AAB
TAFDPA
TAF AMD
KDPA 262159Z 2622/2718 32013G19KT P6SM BKN040
     FM270200 36009KT P6SM BKN035
     FM270600 01010KT P6SM OVC025
     FM271500 36012KT P6SM BKN050=



000
FTUS43 KLOT 262159 AAC
TAFGYY
TAF AMD
KGYY 262159Z 2622/2718 04008KT P6SM BKN050
     FM270200 03009KT P6SM BKN035
     FM270500 01011KT 4SM -SHSN BR OVC020
     FM271600 04012KT P6SM VCSH BKN040=



000
FTUS43 KLOT 262159 AAC
TAFGYY
TAF AMD
KGYY 262159Z 2622/2718 04008KT P6SM BKN050
     FM270200 03009KT P6SM BKN035
     FM270500 01011KT 4SM -SHSN BR OVC020
     FM271600 04012KT P6SM VCSH BKN040=



000
FTUS43 KLOT 262159 AAB
TAFMDW
TAF AMD
KMDW 262159Z 2622/2718 32012KT P6SM BKN045
     FM270100 35009KT P6SM BKN035
     FM270700 01012KT 4SM -SHSN BKN020 OVC040
     FM271200 01012KT P6SM -SHSN BKN025 OVC040
     FM271500 36010G18KT P6SM BKN040=



000
FTUS43 KLOT 262001 AAA
TAFRFD
TAF AMD
KRFD 262001Z 2620/2718 32012KT P6SM BKN040
     FM270200 36009KT P6SM BKN035
     FM270800 36012KT P6SM BKN050
     FM271200 36009KT P6SM SCT050=



000
FTUS43 KLOT 262001 AAA
TAFORD
TAF AMD
KORD 262001Z 2620/2724 32011G17KT P6SM BKN040
     FM270200 34009KT P6SM BKN035
     FM270700 01011KT 4SM -SHSN BKN020 OVC040
     FM271200 01012KT P6SM -SHSN BKN025 OVC040
     FM271500 36010G18KT P6SM BKN035 BKN060=



000
FTUS43 KLOT 262001 AAB
TAFGYY
TAF AMD
KGYY 262001Z 2620/2718 03010KT P6SM BKN035 BKN050
     FM270200 36009KT P6SM BKN035
     FM270500 01011KT 4SM -SHSN BR OVC020
     FM271400 36012KT P6SM VCSH BKN030 OVC040=



000
FTUS43 KLOT 262001 AAB
TAFGYY
TAF AMD
KGYY 262001Z 2620/2718 03010KT P6SM BKN035 BKN050
     FM270200 36009KT P6SM BKN035
     FM270500 01011KT 4SM -SHSN BR OVC020
     FM271400 36012KT P6SM VCSH BKN030 OVC040=



000
FTUS43 KLOT 262001 AAA
TAFDPA
TAF AMD
KDPA 262001Z 2620/2718 32013G19KT P6SM BKN040
     FM270200 36009KT P6SM BKN035
     FM270600 01010KT P6SM OVC025
     FM271400 36012KT P6SM BKN035 OVC050=



000
FTUS43 KLOT 262001 AAA
TAFMDW
TAF AMD
KMDW 262001Z 2620/2718 32011G17KT P6SM BKN040
     FM270100 35009KT P6SM BKN035
     FM270700 01012KT 4SM -SHSN BKN020 OVC040
     FM271200 01012KT P6SM -SHSN BKN025 OVC040
     FM271500 36010G18KT P6SM BKN035 BKN060=



000
FTUS43 KLOT 261846 AAA
TAFGYY
TAF AMD
KGYY 261846Z 2619/2718 01012KT P6SM BKN035 BKN050
     FM270200 36009KT P6SM BKN035
     FM270500 01011KT 4SM -SHSN BR OVC020
     FM271400 36012KT P6SM VCSH BKN030 OVC040=



000
FTUS43 KLOT 261846 AAA
TAFGYY
TAF AMD
KGYY 261846Z 2619/2718 01012KT P6SM BKN035 BKN050
     FM270200 36009KT P6SM BKN035
     FM270500 01011KT 4SM -SHSN BR OVC020
     FM271400 36012KT P6SM VCSH BKN030 OVC040=



000
FTUS43 KLOT 261749
TAFDPA
TAF
KDPA 261749Z 2618/2718 32011G17KT P6SM BKN035
     FM270200 36009KT P6SM BKN035
     FM270600 01010KT P6SM OVC025
     FM271400 36012KT P6SM BKN035 OVC050=



000
FTUS43 KLOT 261749
TAFORD
TAF
KORD 261749Z 2618/2724 31011G18KT P6SM BKN035
     FM270200 34009KT P6SM BKN035
     FM270600 01011KT 4SM -SHSN BKN020 OVC040
     FM271200 01012KT P6SM -SHSN BKN025 OVC040
     FM271500 36010G18KT P6SM BKN035 BKN060=



000
FTUS43 KLOT 261749
TAFMDW
TAF
KMDW 261749Z 2618/2718 31011G18KT P6SM BKN035
     FM270100 35009KT P6SM BKN035
     FM270500 01012KT 4SM -SHSN BKN020 OVC040
     FM271200 01012KT P6SM -SHSN BKN025 OVC040
     FM271500 36010G18KT P6SM BKN035 BKN060=



000
FTUS43 KLOT 261749
TAFGYY
TAF
KGYY 261749Z 2618/2718 34012G20KT P6SM BKN035 BKN050
     FM270200 36009KT P6SM BKN035
     FM270500 01011KT 4SM -SHSN BR OVC020
     FM271400 36012KT P6SM VCSH BKN030 OVC040=



000
FTUS43 KLOT 261749
TAFRFD
TAF
KRFD 261749Z 2618/2718 32011G17KT P6SM BKN035
     FM270200 36009KT P6SM BKN035
     FM270800 36012KT P6SM BKN050
     FM271200 36009KT P6SM SCT050=



000
FTUS43 KLOT 261749
TAFGYY
TAF
KGYY 261749Z 2618/2718 34012G20KT P6SM BKN035 BKN050
     FM270200 36009KT P6SM BKN035
     FM270500 01011KT 4SM -SHSN BR OVC020
     FM271400 36012KT P6SM VCSH BKN030 OVC040=



000
FTUS43 KLOT 261607 AAC
TAFGYY
TAF AMD
KGYY 261607Z 2616/2712 31012G20KT P6SM BKN030 BKN200
     FM261900 34013G17KT P6SM BKN030
     FM270200 36009KT P6SM BKN035
      TEMPO 2705/2709 5SM -SHSN BR OVC020
     FM271000 36012KT P6SM VCSH BKN030 OVC040=



000
FTUS43 KLOT 261607 AAC
TAFGYY
TAF AMD
KGYY 261607Z 2616/2712 31012G20KT P6SM BKN030 BKN200
     FM261900 34013G17KT P6SM BKN030
     FM270200 36009KT P6SM BKN035
      TEMPO 2705/2709 5SM -SHSN BR OVC020
     FM271000 36012KT P6SM VCSH BKN030 OVC040=



000
FTUS43 KLOT 261606 AAC
TAFMDW
TAF AMD
KMDW 261606Z 2616/2712 31011G18KT P6SM BKN030 BKN200
     FM262200 34013G17KT P6SM BKN035
     FM270100 36009KT P6SM BKN035
     FM270600 01012KT P6SM BKN050 PROB30 2706/2712 4SM -SHSN BR
      OVC030=



000
FTUS43 KLOT 261606 AAB
TAFDPA
TAF AMD
KDPA 261606Z 2616/2712 31011G18KT P6SM BKN030 BKN200
     FM262200 32011G17KT P6SM BKN035
     FM270200 36009KT P6SM BKN035
     FM271000 36012KT P6SM BKN050=



000
FTUS43 KLOT 261606 AAC
TAFORD
TAF AMD
KORD 261606Z 2616/2718 31011G18KT P6SM BKN035 BKN200
     FM262200 32013G17KT P6SM BKN035
     FM270200 36009KT P6SM BKN035
     FM270800 36012KT P6SM BKN050
     FM271500 36010G18KT P6SM SCT040 BKN060=



000
FTUS43 KLOT 261606 AAB
TAFRFD
TAF AMD
KRFD 261606Z 2616/2712 34013G17KT P6SM BKN030
     FM261900 32011G18KT P6SM BKN035
     FM270200 36009KT P6SM BKN035
     FM270800 36012KT P6SM BKN050=



000
FTUS43 KLOT 261606 AAB
TAFGYY
TAF AMD
KGYY 261606Z 2616/2712 31012G20KT P6SM SCT028 BKN200
     FM261900 34013G17KT P6SM BKN030
     FM270200 36009KT P6SM BKN035
      TEMPO 2705/2709 5SM -SHSN BR OVC020
     FM271000 36012KT P6SM VCSH BKN030 OVC040=



000
FTUS43 KLOT 261606 AAB
TAFGYY
TAF AMD
KGYY 261606Z 2616/2712 31012G20KT P6SM SCT028 BKN200
     FM261900 34013G17KT P6SM BKN030
     FM270200 36009KT P6SM BKN035
      TEMPO 2705/2709 5SM -SHSN BR OVC020
     FM271000 36012KT P6SM VCSH BKN030 OVC040=



000
FTUS43 KLOT 261357 AAB
TAFORD
TAF AMD
KORD 261357Z 2614/2718 29009KT P6SM SCT029 BKN250
     FM261500 31012G20KT P6SM SCT030 BKN200
     FM261900 34013G17KT P6SM BKN030
     FM270200 36009KT P6SM BKN035
     FM270800 36012KT P6SM BKN050
     FM271500 36010G18KT P6SM SCT040 BKN060=



000
FTUS43 KLOT 261357 AAA
TAFRFD
TAF AMD
KRFD 261357Z 2614/2712 29009KT P6SM SCT029 SCT250
     FM261500 31012G20KT P6SM BKN029 BKN200
     FM261800 34013G17KT P6SM BKN030
     FM270200 36009KT P6SM BKN035
     FM270800 36012KT P6SM BKN050=



000
FTUS43 KLOT 261357 AAB
TAFMDW
TAF AMD
KMDW 261357Z 2614/2712 31013KT P6SM SCT030 BKN150
      TEMPO 2614/2615 BKN030
     FM261500 31012G20KT P6SM SCT030 BKN200
     FM261900 34013G17KT P6SM BKN030
     FM270200 36009KT P6SM BKN035 PROB30 2703/2707 5SM -SHSN BR
      OVC030
     FM270800 36012KT P6SM BKN050=



000
FTUS43 KLOT 261357 AAA
TAFRFD
TAF AMD
KRFD 261357Z 2614/2712 29009KT P6SM SCT029 SCT250
     FM261500 31012G20KT P6SM BKN029 BKN200
     FM261800 34013G17KT P6SM BKN030
     FM270200 36009KT P6SM BKN035
     FM270800 36012KT P6SM BKN050=



000
FTUS43 KLOT 261357 AAA
TAFGYY
TAF AMD
KGYY 261357Z 2614/2712 31010KT P6SM SCT025 BKN120
     FM261500 31012G20KT P6SM SCT028 BKN200
     FM261900 34013G17KT P6SM BKN030
     FM270200 36009KT P6SM BKN035
      TEMPO 2704/2708 5SM -SHSN BR OVC020
     FM270800 36012KT P6SM VCSH BKN030 OVC040=



000
FTUS43 KLOT 261357 AAB
TAFORD
TAF AMD
KORD 261357Z 2614/2718 29009KT P6SM SCT029 BKN250
     FM261500 31012G20KT P6SM SCT030 BKN200
     FM261900 34013G17KT P6SM BKN030
     FM270200 36009KT P6SM BKN035
     FM270800 36012KT P6SM BKN050
     FM271500 36010G18KT P6SM SCT040 BKN060=



000
FTUS43 KLOT 261357 AAA
TAFGYY
TAF AMD
KGYY 261357Z 2614/2712 31010KT P6SM SCT025 BKN120
     FM261500 31012G20KT P6SM SCT028 BKN200
     FM261900 34013G17KT P6SM BKN030
     FM270200 36009KT P6SM BKN035
      TEMPO 2704/2708 5SM -SHSN BR OVC020
     FM270800 36012KT P6SM VCSH BKN030 OVC040=



000
FTUS43 KLOT 261357 AAB
TAFMDW
TAF AMD
KMDW 261357Z 2614/2712 31013KT P6SM SCT030 BKN150
      TEMPO 2614/2615 BKN030
     FM261500 31012G20KT P6SM SCT030 BKN200
     FM261900 34013G17KT P6SM BKN030
     FM270200 36009KT P6SM BKN035 PROB30 2703/2707 5SM -SHSN BR
      OVC030
     FM270800 36012KT P6SM BKN050=



000
FTUS43 KLOT 261357 AAA
TAFDPA
TAF AMD
KDPA 261357Z 2614/2712 30009KT P6SM SCT028 BKN250
     FM261500 31012G20KT P6SM SCT030 BKN200
     FM261900 34013G17KT P6SM BKN030
     FM270200 36009KT P6SM BKN035
     FM270800 36012KT P6SM BKN050=



000
FTUS43 KLOT 261357 AAA
TAFDPA
TAF AMD
KDPA 261357Z 2614/2712 30009KT P6SM SCT028 BKN250
     FM261500 31012G20KT P6SM SCT030 BKN200
     FM261900 34013G17KT P6SM BKN030
     FM270200 36009KT P6SM BKN035
     FM270800 36012KT P6SM BKN050=



000
FTUS43 KLOT 261357 AAA
TAFGYY
TAF AMD
KGYY 261357Z 2614/2712 31010KT P6SM SCT025 BKN120
     FM261500 31012G20KT P6SM SCT028 BKN200
     FM261900 34013G17KT P6SM BKN030
     FM270200 36009KT P6SM BKN035
      TEMPO 2704/2708 5SM -SHSN BR OVC020
     FM270800 36012KT P6SM VCSH BKN030 OVC040=



000
FTUS43 KLOT 261200 AAA
TAFORD
TAF AMD
KORD 261200Z 2612/2718 31013KT P6SM SCT030 BKN150
      TEMPO 2612/2614 BKN030
     FM261500 31012G20KT P6SM SCT025 BKN200
     FM261900 34013G17KT P6SM BKN030
     FM270200 36009KT P6SM BKN035
     FM270800 36012KT P6SM BKN050
     FM271500 36010G18KT P6SM SCT040 BKN060=



000
FTUS43 KLOT 261200 AAA
TAFMDW
TAF AMD
KMDW 261200Z 2612/2712 31013KT P6SM SCT030 BKN150
      TEMPO 2613/2614 BKN030
     FM261500 31012G20KT P6SM SCT025 BKN200
     FM261900 34013G17KT P6SM BKN030
     FM270200 36009KT P6SM BKN035 PROB30 2703/2707 5SM -SHSN BR
      OVC030
     FM270800 36012KT P6SM BKN050=



000
FTUS43 KLOT 261200 AAA
TAFORD
TAF AMD
KORD 261200Z 2612/2718 31013KT P6SM SCT030 BKN150
      TEMPO 2612/2614 BKN030
     FM261500 31012G20KT P6SM SCT025 BKN200
     FM261900 34013G17KT P6SM BKN030
     FM270200 36009KT P6SM BKN035
     FM270800 36012KT P6SM BKN050
     FM271500 36010G18KT P6SM SCT040 BKN060=



000
FTUS43 KLOT 261136
TAFGYY
TAF
KGYY 261136Z 2612/2712 31013KT P6SM SCT040 BKN150
     FM261500 31012G20KT P6SM SCT025 BKN200
     FM261900 34013G17KT P6SM BKN030
     FM270200 36009KT P6SM BKN035
      TEMPO 2704/2708 5SM -SHSN BR OVC020
     FM270800 36012KT P6SM VCSH BKN030 OVC040=



000
FTUS43 KLOT 261136
TAFMDW
TAF
KMDW 261136Z 2612/2712 31013KT P6SM SCT040 BKN150
     FM261500 31012G20KT P6SM SCT025 BKN200
     FM261900 34013G17KT P6SM BKN030
     FM270200 36009KT P6SM BKN035 PROB30 2703/2707 5SM -SHSN BR
      OVC030
     FM270800 36012KT P6SM BKN050=



000
FTUS43 KLOT 261136
TAFDPA
TAF
KDPA 261136Z 2612/2712 31013KT P6SM SCT040 BKN150
     FM261500 31012G20KT P6SM SCT025 BKN200
     FM261900 34013G17KT P6SM BKN030
     FM270200 36009KT P6SM BKN035
     FM270800 36012KT P6SM BKN050=



000
FTUS43 KLOT 261136
TAFORD
TAF
KORD 261136Z 2612/2718 31013KT P6SM SCT040 BKN150
     FM261500 31012G20KT P6SM SCT025 BKN200
     FM261900 34013G17KT P6SM BKN030
     FM270200 36009KT P6SM BKN035
     FM270800 36012KT P6SM BKN050
     FM271500 36010G18KT P6SM SCT040 BKN060=



000
FTUS43 KLOT 261136
TAFGYY
TAF
KGYY 261136Z 2612/2712 31013KT P6SM SCT040 BKN150
     FM261500 31012G20KT P6SM SCT025 BKN200
     FM261900 34013G17KT P6SM BKN030
     FM270200 36009KT P6SM BKN035
      TEMPO 2704/2708 5SM -SHSN BR OVC020
     FM270800 36012KT P6SM VCSH BKN030 OVC040=



000
FTUS43 KLOT 261136
TAFRFD
TAF
KRFD 261136Z 2612/2712 30011KT P6SM BKN030
     FM261500 31012G20KT P6SM SCT025 BKN200
     FM261800 34013G17KT P6SM BKN030
     FM270200 36009KT P6SM BKN035
     FM270800 36012KT P6SM BKN050=



000
FTUS43 KLOT 261136
TAFRFD
TAF
KRFD 261136Z 2612/2712 30011KT P6SM BKN030
     FM261500 31012G20KT P6SM SCT025 BKN200
     FM261800 34013G17KT P6SM BKN030
     FM270200 36009KT P6SM BKN035
     FM270800 36012KT P6SM BKN050=



000
FTUS43 KLOT 261136
TAFGYY
TAF
KGYY 261136Z 2612/2712 31013KT P6SM SCT040 BKN150
     FM261500 31012G20KT P6SM SCT025 BKN200
     FM261900 34013G17KT P6SM BKN030
     FM270200 36009KT P6SM BKN035
      TEMPO 2704/2708 5SM -SHSN BR OVC020
     FM270800 36012KT P6SM VCSH BKN030 OVC040=



000
FTUS43 KLOT 261136
TAFMDW
TAF
KMDW 261136Z 2612/2712 31013KT P6SM SCT040 BKN150
     FM261500 31012G20KT P6SM SCT025 BKN200
     FM261900 34013G17KT P6SM BKN030
     FM270200 36009KT P6SM BKN035 PROB30 2703/2707 5SM -SHSN BR
      OVC030
     FM270800 36012KT P6SM BKN050=



000
FTUS43 KLOT 261136
TAFORD
TAF
KORD 261136Z 2612/2718 31013KT P6SM SCT040 BKN150
     FM261500 31012G20KT P6SM SCT025 BKN200
     FM261900 34013G17KT P6SM BKN030
     FM270200 36009KT P6SM BKN035
     FM270800 36012KT P6SM BKN050
     FM271500 36010G18KT P6SM SCT040 BKN060=



000
FTUS43 KLOT 261136
TAFGYY
TAF
KGYY 261136Z 2612/2712 31013KT P6SM SCT040 BKN150
     FM261500 31012G20KT P6SM SCT025 BKN200
     FM261900 34013G17KT P6SM BKN030
     FM270200 36009KT P6SM BKN035
      TEMPO 2704/2708 5SM -SHSN BR OVC020
     FM270800 36012KT P6SM VCSH BKN030 OVC040=



000
FTUS43 KLOT 261136
TAFDPA
TAF
KDPA 261136Z 2612/2712 31013KT P6SM SCT040 BKN150
     FM261500 31012G20KT P6SM SCT025 BKN200
     FM261900 34013G17KT P6SM BKN030
     FM270200 36009KT P6SM BKN035
     FM270800 36012KT P6SM BKN050=



000
FTUS43 KLOT 260918 AAA
TAFDPA
TAF AMD
KDPA 260918Z 2609/2706 32013KT P6SM SCT040 BKN150
     FM261500 33012G20KT P6SM SCT025 BKN200
     FM262000 32013KT P6SM BKN040
     FM270300 36009KT P6SM BKN035=



000
FTUS43 KLOT 260918 AAA
TAFRFD
TAF AMD
KRFD 260918Z 2609/2706 30013KT P6SM SCT040 BKN150
     FM261500 33012G20KT P6SM SCT025 BKN200
     FM262000 32013KT P6SM BKN040
     FM270300 36009KT P6SM BKN035=



000
FTUS43 KLOT 260918 AAA
TAFORD
TAF AMD
KORD 260918Z 2609/2712 32013KT P6SM SCT040 BKN150
     FM261500 33012G20KT P6SM SCT025 BKN200
     FM262000 32013KT P6SM BKN040
     FM270300 36009KT P6SM BKN035
     FM270800 36012KT P6SM BKN050=



000
FTUS43 KLOT 260918 AAA
TAFMDW
TAF AMD
KMDW 260918Z 2609/2706 32013KT P6SM SCT040 BKN150
     FM261500 33012G20KT P6SM SCT025 BKN200
     FM262000 32013KT P6SM BKN040
     FM270300 36009KT P6SM BKN035=



000
FTUS43 KLOT 260918 AAA
TAFGYY
TAF AMD
KGYY 260918Z 2609/2706 32013KT P6SM SCT040 BKN150
     FM261500 33012G20KT P6SM SCT025 BKN200
     FM262000 32013KT P6SM BKN040
     FM270300 36009KT P6SM BKN035=



000
FTUS43 KLOT 260540
TAFORD
TAF
KORD 260540Z 2606/2712 29009KT P6SM SCT035 BKN120
     FM260900 32013KT P6SM SCT040 BKN150
     FM261500 33012G20KT P6SM SCT025 BKN200
     FM262000 32013KT P6SM BKN040
     FM270300 36009KT P6SM BKN035
     FM270800 36012KT P6SM BKN050=



000
FTUS43 KLOT 260540
TAFORD
TAF
KORD 260540Z 2606/2712 29009KT P6SM SCT035 BKN120
     FM260900 32013KT P6SM SCT040 BKN150
     FM261500 33012G20KT P6SM SCT025 BKN200
     FM262000 32013KT P6SM BKN040
     FM270300 36009KT P6SM BKN035
     FM270800 36012KT P6SM BKN050=



000
FTUS43 KLOT 260540
TAFRFD
TAF
KRFD 260540Z 2606/2706 29009KT P6SM BKN025 BKN120
     FM260900 32013KT P6SM SCT040 BKN150
     FM261500 33012G20KT P6SM SCT025 BKN200
     FM262000 32013KT P6SM BKN040
     FM270300 36009KT P6SM BKN035=



000
FTUS43 KLOT 260540
TAFGYY
TAF
KGYY 260540Z 2606/2706 28009KT P6SM SCT035 BKN120
     FM260900 32013KT P6SM SCT040 BKN150
     FM261500 33012G20KT P6SM SCT025 BKN200
     FM262000 32013KT P6SM BKN040
     FM270300 36009KT P6SM BKN035=



000
FTUS43 KLOT 260540
TAFGYY
TAF
KGYY 260540Z 2606/2706 28009KT P6SM SCT035 BKN120
     FM260900 32013KT P6SM SCT040 BKN150
     FM261500 33012G20KT P6SM SCT025 BKN200
     FM262000 32013KT P6SM BKN040
     FM270300 36009KT P6SM BKN035=



000
FTUS43 KLOT 260540
TAFMDW
TAF
KMDW 260540Z 2606/2706 29009KT P6SM SCT035 BKN120
     FM260900 32013KT P6SM SCT040 BKN150
     FM261500 33012G20KT P6SM SCT025 BKN200
     FM262000 32013KT P6SM BKN040
     FM270300 36009KT P6SM BKN035=



000
FTUS43 KLOT 260540
TAFDPA
TAF
KDPA 260540Z 2606/2706 29009KT P6SM SCT035 BKN120
     FM260900 32013KT P6SM SCT040 BKN150
     FM261500 33012G20KT P6SM SCT025 BKN200
     FM262000 32013KT P6SM BKN040
     FM270300 36009KT P6SM BKN035=



000
FTUS43 KLOT 260540
TAFGYY
TAF
KGYY 260540Z 2606/2706 28009KT P6SM SCT035 BKN120
     FM260900 32013KT P6SM SCT040 BKN150
     FM261500 33012G20KT P6SM SCT025 BKN200
     FM262000 32013KT P6SM BKN040
     FM270300 36009KT P6SM BKN035=



000
FTUS43 KLOT 260540
TAFGYY
TAF
KGYY 260540Z 2606/2706 28009KT P6SM SCT035 BKN120
     FM260900 32013KT P6SM SCT040 BKN150
     FM261500 33012G20KT P6SM SCT025 BKN200
     FM262000 32013KT P6SM BKN040
     FM270300 36009KT P6SM BKN035=



000
FTUS43 KLOT 260540
TAFMDW
TAF
KMDW 260540Z 2606/2706 29009KT P6SM SCT035 BKN120
     FM260900 32013KT P6SM SCT040 BKN150
     FM261500 33012G20KT P6SM SCT025 BKN200
     FM262000 32013KT P6SM BKN040
     FM270300 36009KT P6SM BKN035=



000
FTUS43 KLOT 260540
TAFDPA
TAF
KDPA 260540Z 2606/2706 29009KT P6SM SCT035 BKN120
     FM260900 32013KT P6SM SCT040 BKN150
     FM261500 33012G20KT P6SM SCT025 BKN200
     FM262000 32013KT P6SM BKN040
     FM270300 36009KT P6SM BKN035=



000
FTUS43 KLOT 260540
TAFRFD
TAF
KRFD 260540Z 2606/2706 29009KT P6SM BKN025 BKN120
     FM260900 32013KT P6SM SCT040 BKN150
     FM261500 33012G20KT P6SM SCT025 BKN200
     FM262000 32013KT P6SM BKN040
     FM270300 36009KT P6SM BKN035=



000
FTUS43 KLOT 260302 AAB
TAFDPA
TAF AMD
KDPA 260302Z 2603/2624 26008KT P6SM FEW020 BKN150 BKN250
     FM260400 29009KT P6SM SCT035 BKN120
     FM260900 32013KT P6SM SCT040 BKN150
     FM261500 33012G20KT P6SM SCT025 BKN200
     FM262000 32013KT P6SM BKN040=



000
FTUS43 KLOT 260302 AAB
TAFRFD
TAF AMD
KRFD 260302Z 2603/2624 30011KT P6SM FEW030 SCT150 BKN250
     FM260400 29006KT P6SM BKN030
     FM260800 32012KT P6SM SCT040 BKN100
     FM261500 33012KT P6SM BKN025=



000
FTUS43 KLOT 260302 AAB
TAFGYY
TAF AMD
KGYY 260302Z 2603/2624 26008KT P6SM SCT017 BKN150 OVC250
     FM260500 29010KT P6SM VCSH BKN030 BKN060
     FM261000 32010KT P6SM SCT040 SCT100
     FM261500 33012G20KT P6SM SCT025 BKN200=



000
FTUS43 KLOT 260302 AAB
TAFGYY
TAF AMD
KGYY 260302Z 2603/2624 26008KT P6SM SCT017 BKN150 OVC250
     FM260500 29010KT P6SM VCSH BKN030 BKN060
     FM261000 32010KT P6SM SCT040 SCT100
     FM261500 33012G20KT P6SM SCT025 BKN200=



000
FTUS43 KLOT 260252 AAB
TAFORD
TAF AMD
KORD 260252Z 2603/2706 29009KT P6SM SCT035 BKN120
     FM260900 32013KT P6SM SCT040 BKN150
     FM261500 33012G20KT P6SM SCT025 BKN200
     FM262000 32013KT P6SM BKN040
     FM270300 36009KT P6SM BKN035=



000
FTUS43 KLOT 260252 AAB
TAFMDW
TAF AMD
KMDW 260252Z 2603/2624 26013KT P6SM SCT015 SCT150 OVC250
      TEMPO 2603/2604 BKN015
     FM260400 29009KT P6SM SCT035 BKN100
     FM260900 32010KT P6SM SCT040 BKN150
     FM261500 33012G20KT P6SM SCT025 BKN200
     FM262000 32013KT P6SM BKN040=



000
FTUS43 KLOT 260055 AAA
TAFORD
TAF AMD
KORD 260055Z 2601/2706 26013KT P6SM FEW020 SCT150 BKN250
     FM260400 29009KT P6SM BKN035 BKN120
     FM260900 32013KT P6SM SCT040 BKN150
     FM261500 33012G20KT P6SM SCT025 BKN200
     FM262000 32013KT P6SM BKN040
     FM270300 36009KT P6SM BKN035=



000
FTUS43 KLOT 260055 AAA
TAFGYY
TAF AMD
KGYY 260055Z 2601/2624 26012G20KT P6SM SCT017 BKN150 OVC250
     FM260500 29010KT P6SM VCSH BKN030 BKN060
     FM261000 32010KT P6SM SCT040 SCT100
     FM261500 33012G20KT P6SM SCT025 BKN200=



000
FTUS43 KLOT 260055 AAA
TAFDPA
TAF AMD
KDPA 260055Z 2601/2624 26012KT P6SM FEW020 BKN150 BKN250
     FM260400 29009KT P6SM BKN035 BKN120
     FM260900 32013KT P6SM SCT040 BKN150
     FM261500 33012G20KT P6SM SCT025 BKN200
     FM262000 32013KT P6SM BKN040=



000
FTUS43 KLOT 260055 AAA
TAFGYY
TAF AMD
KGYY 260055Z 2601/2624 26012G20KT P6SM SCT017 BKN150 OVC250
     FM260500 29010KT P6SM VCSH BKN030 BKN060
     FM261000 32010KT P6SM SCT040 SCT100
     FM261500 33012G20KT P6SM SCT025 BKN200=



000
FTUS43 KLOT 260055 AAA
TAFRFD
TAF AMD
KRFD 260055Z 2601/2624 29012KT P6SM FEW030 SCT150 BKN250
     FM260300 29006KT P6SM BKN030
     FM260800 32012KT P6SM SCT040 BKN100
     FM261500 33012KT P6SM BKN025=



000
FTUS43 KLOT 260055 AAA
TAFMDW
TAF AMD
KMDW 260055Z 2601/2624 26013KT P6SM FEW020 SCT150 OVC250
     FM260400 29009KT P6SM VCSH BKN035 BKN100
     FM260900 32010KT P6SM SCT040 BKN150
     FM261500 33012G20KT P6SM SCT025 BKN200
     FM262000 32013KT P6SM BKN040=



000
FTUS43 KLOT 252332
TAFDPA
TAF
KDPA 252332Z 2600/2624 26012KT P6SM BKN020
     FM260300 29009KT P6SM BKN035 BKN120
     FM260900 32013KT P6SM SCT040 BKN150
     FM261500 33012G20KT P6SM SCT025 BKN200
     FM262000 32013KT P6SM BKN040=



000
FTUS43 KLOT 252332
TAFGYY
TAF
KGYY 252332Z 2600/2624 26012G20KT P6SM OVC017
     FM260300 29010KT P6SM VCSH BKN030 BKN060
     FM261000 32010KT P6SM SCT040 SCT100
     FM261500 33012G20KT P6SM SCT025 BKN200=



000
FTUS43 KLOT 252332
TAFRFD
TAF
KRFD 252332Z 2600/2624 29012KT P6SM SCT025
     FM260200 29006KT P6SM BKN030
     FM260800 32012KT P6SM SCT040 BKN100
     FM261500 33012KT P6SM BKN025=



000
FTUS43 KLOT 252332
TAFMDW
TAF
KMDW 252332Z 2600/2624 26013KT P6SM OVC018
     FM260300 29009KT P6SM VCSH BKN035 BKN100
     FM260900 32010KT P6SM SCT040 BKN150
     FM261500 33012G20KT P6SM SCT025 BKN200
     FM262000 32013KT P6SM BKN040=



000
FTUS43 KLOT 252332
TAFORD
TAF
KORD 252332Z 2600/2706 26013KT P6SM OVC020
     FM260300 29009KT P6SM BKN035 BKN120
     FM260900 32013KT P6SM SCT040 BKN150
     FM261500 33012G20KT P6SM SCT025 BKN200
     FM262000 32013KT P6SM BKN040
     FM270300 36009KT P6SM BKN035=



000
FTUS43 KLOT 252332
TAFGYY
TAF
KGYY 252332Z 2600/2624 26012G20KT P6SM OVC017
     FM260300 29010KT P6SM VCSH BKN030 BKN060
     FM261000 32010KT P6SM SCT040 SCT100
     FM261500 33012G20KT P6SM SCT025 BKN200=



    US Dept of Commerce
    National Oceanic and Atmospheric Administration
    National Weather Service
    1325 East West Highway
    Silver Spring, MD 20910
    Page Author: NWS Internet Services Team
Disclaimer
Information Quality
Credits
Glossary
Privacy Policy
Freedom of Information Act (FOIA)
About Us
Career Opportunities